Terminal Aerodrome Forecast
Issued by NWS Miami, FL

Home | Current Version | Previous Version | Text Only | Print | Product List | Glossary On
Versions: 1 2 3 4 5 6 7 8 9 10 11 12 13 14 15 16 17 18 19 20 21 22 23 24 25 26 27 28 29 30 31 32 33 34 35 36 37 38 39 40 41 42 43 44 45 46 47 48 49 50
000
FTUS42 KMFL 231134
TAFFLL
TAF
KFLL 231134Z 2312/2418 14008KT P6SM FEW025 SCT200
     FM231600 15010KT P6SM SHRA VCTS SCT030CB BKN060
     FM232000 17013KT 4SM SHRA VCTS SCT030CB BKN050
     FM240000 23005KT P6SM VCSH SCT020 BKN040
     FM240400 25003KT P6SM VCSH BKN040 OVC100=

USA.gov is the U.S. government's official web portal to all federal, state and local government web resources and services.